Time;durP1;ratioP1;P1;durP2;ratioP2;P2;SDS_P1;SDS_P2;PMS_P1;PMS_P2;Temp;Humidity;BMP_temperature;BMP_pressure;BME280_temperature;BME280_humidity;BME280_pressure;Samples;Min_cycle;Max_cycle;Signal;HPM_P1;HPM_P2
2022/04/19 00:01:21;;;;;;;1999.90;999.90;;;;;;;;;;5013883;28;20234;-68
2022/04/19 00:04:05;;;;;;;1999.90;999.90;;;;;;;;;;5014177;28;20211;-68
2022/04/19 00:06:50;;;;;;;1999.90;999.90;;;;;;;;;;5013829;28;20210;-67
2022/04/19 00:09:36;;;;;;;1999.90;999.90;;;;;;;;;;5012409;28;20439;-68
2022/04/19 00:12:23;;;;;;;1999.90;999.90;;;;;;;;;;5013894;28;20677;-67
2022/04/19 00:15:09;;;;;;;1999.90;999.90;;;;;;;;;;5013672;28;20206;-68
2022/04/19 00:17:54;;;;;;;1999.90;999.90;;;;;;;;;;5013532;28;20604;-67
2022/04/19 00:20:42;;;;;;;1999.90;999.90;;;;;;;;;;5013485;28;20412;-68
2022/04/19 00:23:28;;;;;;;1999.90;999.90;;;;;;;;;;5013844;28;20207;-68
2022/04/19 00:26:13;;;;;;;1999.90;999.90;;;;;;;;;;5013536;28;20618;-68
2022/04/19 00:28:59;;;;;;;1999.90;999.90;;;;;;;;;;5012866;28;20259;-68
2022/04/19 00:31:44;;;;;;;1999.90;999.90;;;;;;;;;;5013044;28;20226;-67
2022/04/19 00:34:29;;;;;;;1999.90;999.90;;;;;;;;;;5013394;28;20238;-68
2022/04/19 00:37:14;;;;;;;1999.90;999.90;;;;;;;;;;5013526;28;20330;-68
2022/04/19 00:40:00;;;;;;;1999.90;999.90;;;;;;;;;;5012774;28;20222;-68
2022/04/19 00:42:46;;;;;;;1999.90;999.90;;;;;;;;;;5013225;28;20203;-68
2022/04/19 00:45:34;;;;;;;1999.90;999.90;;;;;;;;;;5013059;28;20242;-68
2022/04/19 00:48:21;;;;;;;1999.90;999.90;;;;;;;;;;5012899;28;20202;-66
2022/04/19 00:51:06;;;;;;;1999.90;999.90;;;;;;;;;;5012134;28;20408;-67
2022/04/19 00:53:52;;;;;;;1999.90;999.90;;;;;;;;;;5012737;28;20570;-68
2022/04/19 00:56:37;;;;;;;1999.90;999.90;;;;;;;;;;5012864;28;20202;-68
2022/04/19 00:59:24;;;;;;;1999.90;999.90;;;;;;;;;;5012337;28;20206;-67
2022/04/19 01:02:11;;;;;;;1999.90;999.90;;;;;;;;;;5012570;28;20424;-68
2022/04/19 01:04:56;;;;;;;1999.90;999.90;;;;;;;;;;5012706;28;20202;-67
2022/04/19 01:07:45;;;;;;;1999.90;999.90;;;;;;;;;;5012715;28;20605;-68
2022/04/19 01:10:30;;;;;;;1999.90;999.90;;;;;;;;;;5012274;28;20230;-66
2022/04/19 01:13:17;;;;;;;1999.90;999.90;;;;;;;;;;5012786;28;20214;-67
2022/04/19 01:16:02;;;;;;;1999.90;999.90;;;;;;;;;;5012715;28;20276;-68
2022/04/19 01:18:48;;;;;;;1999.90;999.90;;;;;;;;;;5012208;28;20245;-68
2022/04/19 01:21:44;;;;;;;1999.90;999.90;;;;;;;;;;5012400;28;20305;-66
2022/04/19 01:24:30;;;;;;;1999.90;999.90;;;;;;;;;;5012569;28;20203;-67
2022/04/19 01:27:14;;;;;;;1999.90;999.90;;;;;;;;;;5012449;28;20198;-67
2022/04/19 01:30:02;;;;;;;1999.90;999.90;;;;;;;;;;5011939;28;20333;-68
2022/04/19 01:32:47;;;;;;;1999.90;999.90;;;;;;;;;;5011618;28;20492;-67
2022/04/19 01:35:32;;;;;;;1999.90;999.90;;;;;;;;;;5012313;28;20576;-68
2022/04/19 01:38:18;;;;;;;1999.90;999.90;;;;;;;;;;5011806;28;20744;-67
2022/04/19 01:41:02;;;;;;;1999.90;999.90;;;;;;;;;;5012394;28;20369;-67
2022/04/19 01:43:47;;;;;;;1999.90;999.90;;;;;;;;;;5011882;28;20411;-65
2022/04/19 01:46:33;;;;;;;1999.90;999.90;;;;;;;;;;5012009;28;20211;-68
2022/04/19 01:49:18;;;;;;;1999.90;999.90;;;;;;;;;;5011641;28;20599;-67
2022/04/19 01:52:03;;;;;;;1999.90;999.90;;;;;;;;;;5012229;28;20205;-67
2022/04/19 01:54:49;;;;;;;1999.90;999.90;;;;;;;;;;5012287;28;20219;-66
2022/04/19 01:57:35;;;;;;;1999.90;999.90;;;;;;;;;;5012106;28;20732;-66
2022/04/19 02:00:20;;;;;;;1999.90;999.90;;;;;;;;;;5011699;28;20595;-68
2022/04/19 02:03:05;;;;;;;1999.90;999.90;;;;;;;;;;5012072;28;20213;-67
2022/04/19 02:05:50;;;;;;;1999.90;999.90;;;;;;;;;;5012418;28;20313;-68
2022/04/19 02:08:35;;;;;;;1999.90;999.90;;;;;;;;;;5011373;28;20207;-68
2022/04/19 02:11:24;;;;;;;1999.90;999.90;;;;;;;;;;5011657;28;20234;-68
2022/04/19 02:14:09;;;;;;;1999.90;999.90;;;;;;;;;;5011208;28;20404;-67
2022/04/19 02:16:55;;;;;;;1999.90;999.90;;;;;;;;;;5010602;28;20212;-67
2022/04/19 02:19:40;;;;;;;1999.90;999.90;;;;;;;;;;5011803;28;20293;-68
2022/04/19 02:22:26;;;;;;;1999.90;999.90;;;;;;;;;;5011804;28;20293;-67
2022/04/19 02:25:12;;;;;;;1999.90;999.90;;;;;;;;;;5011641;28;20411;-67
2022/04/19 02:27:58;;;;;;;1999.90;999.90;;;;;;;;;;5011581;28;20206;-68
2022/04/19 02:30:43;;;;;;;1999.90;999.90;;;;;;;;;;5011658;28;20234;-67
2022/04/19 02:33:30;;;;;;;1999.90;999.90;;;;;;;;;;5011724;28;20681;-68
2022/04/19 02:36:15;;;;;;;1999.90;999.90;;;;;;;;;;5011804;28;20206;-67
2022/04/19 02:39:01;;;;;;;1999.90;999.90;;;;;;;;;;5011582;28;20203;-68
2022/04/19 02:41:46;;;;;;;1999.90;999.90;;;;;;;;;;5011453;28;20230;-68
2022/04/19 02:44:33;;;;;;;1999.90;999.90;;;;;;;;;;5011587;28;20689;-67
2022/04/19 02:47:19;;;;;;;1999.90;999.90;;;;;;;;;;5011836;28;20206;-68
2022/04/19 02:50:04;;;;;;;1999.90;999.90;;;;;;;;;;5011389;28;20247;-67
2022/04/19 02:52:49;;;;;;;1999.90;999.90;;;;;;;;;;5012068;28;20770;-67
2022/04/19 02:55:33;;;;;;;1999.90;999.90;;;;;;;;;;5015110;28;20206;-67
2022/04/19 02:58:18;;;;;;;1999.90;999.90;;;;;;;;;;5014877;28;20205;-67
2022/04/19 03:01:05;;;;;;;1999.90;999.90;;;;;;;;;;5014969;28;20242;-68
2022/04/19 03:03:50;;;;;;;1999.90;999.90;;;;;;;;;;5015086;28;20205;-68
2022/04/19 03:06:35;;;;;;;1999.90;999.90;;;;;;;;;;5014691;28;20202;-68
2022/04/19 03:09:21;;;;;;;1999.90;999.90;;;;;;;;;;5013134;28;20398;-68
2022/04/19 03:12:06;;;;;;;1999.90;999.90;;;;;;;;;;5014866;28;20221;-67
2022/04/19 03:14:51;;;;;;;1999.90;999.90;;;;;;;;;;5014967;28;20199;-67
2022/04/19 03:17:38;;;;;;;1999.90;999.90;;;;;;;;;;5014949;28;20568;-67
2022/04/19 03:20:23;;;;;;;1999.90;999.90;;;;;;;;;;5014796;28;20218;-67
2022/04/19 03:29:13;;;;;;;1999.90;999.90;;;;;;;;;;5014074;28;20254;-68
2022/04/19 03:31:59;;;;;;;1999.90;999.90;;;;;;;;;;5014356;28;20346;-67
2022/04/19 03:34:46;;;;;;;1999.90;999.90;;;;;;;;;;5014450;28;20589;-67
2022/04/19 03:37:31;;;;;;;1999.90;999.90;;;;;;;;;;5014356;28;20202;-68
2022/04/19 03:40:15;;;;;;;1999.90;999.90;;;;;;;;;;5012899;28;20420;-67
2022/04/19 03:43:00;;;;;;;1999.90;999.90;;;;;;;;;;5014442;28;20202;-67
2022/04/19 03:45:45;;;;;;;1999.90;999.90;;;;;;;;;;5014391;28;20211;-67
2022/04/19 03:48:30;;;;;;;1999.90;999.90;;;;;;;;;;5013835;28;20293;-68
2022/04/19 03:51:16;;;;;;;1999.90;999.90;;;;;;;;;;5013555;28;20530;-67
2022/04/19 03:54:01;;;;;;;1999.90;999.90;;;;;;;;;;5014318;28;20281;-67
2022/04/19 03:56:46;;;;;;;1999.90;999.90;;;;;;;;;;5013946;28;20246;-68
2022/04/19 03:59:31;;;;;;;1999.90;999.90;;;;;;;;;;5013773;28;20333;-67
2022/04/19 04:02:17;;;;;;;1999.90;999.90;;;;;;;;;;5013769;28;20206;-67
2022/04/19 04:05:04;;;;;;;1999.90;999.90;;;;;;;;;;5012777;28;20238;-68
2022/04/19 04:07:50;;;;;;;1999.90;999.90;;;;;;;;;;5013289;28;20206;-66
2022/04/19 04:10:35;;;;;;;1999.90;999.90;;;;;;;;;;5013608;28;20306;-68
2022/04/19 04:13:20;;;;;;;1999.90;999.90;;;;;;;;;;5013726;28;20712;-67
2022/04/19 04:16:05;;;;;;;1999.90;999.90;;;;;;;;;;5013668;28;20297;-68
2022/04/19 04:18:50;;;;;;;1999.90;999.90;;;;;;;;;;5013305;28;20213;-68
2022/04/19 04:21:35;;;;;;;1999.90;999.90;;;;;;;;;;5018825;28;20472;-65
2022/04/19 04:24:22;;;;;;;1999.90;999.90;;;;;;;;;;5031888;28;20216;-65
2022/04/19 04:27:07;;;;;;;1999.90;999.90;;;;;;;;;;5028943;28;20590;-68
2022/04/19 04:29:52;;;;;;;1999.90;999.90;;;;;;;;;;5032773;28;20216;-67
2022/04/19 04:32:37;;;;;;;1999.90;999.90;;;;;;;;;;5022353;28;20212;-67
2022/04/19 04:35:22;;;;;;;1999.90;999.90;;;;;;;;;;5031195;28;20430;-67
2022/04/19 04:38:06;;;;;;;1999.90;999.90;;;;;;;;;;5012424;28;20265;-66
2022/04/19 04:40:53;;;;;;;1999.90;999.90;;;;;;;;;;5026056;28;20233;-68
2022/04/19 04:43:39;;;;;;;1999.90;999.90;;;;;;;;;;5021271;28;20213;-67
2022/04/19 04:49:39;;;;;;;1999.90;999.90;;;;;;;;;;5030761;28;20755;-68
2022/04/19 04:52:24;;;;;;;1999.90;999.90;;;;;;;;;;5012388;28;20213;-67
2022/04/19 04:55:09;;;;;;;1999.90;999.90;;;;;;;;;;5012251;28;20588;-68
2022/04/19 04:57:59;;;;;;;1999.90;999.90;;;;;;;;;;5011921;28;20218;-68
2022/04/19 05:00:44;;;;;;;1999.90;999.90;;;;;;;;;;5029139;28;20246;-68
2022/04/19 05:03:29;;;;;;;1999.90;999.90;;;;;;;;;;5030497;28;20208;-67
2022/04/19 05:06:14;;;;;;;1999.90;999.90;;;;;;;;;;5032152;28;20225;-68
2022/04/19 05:08:58;;;;;;;1999.90;999.90;;;;;;;;;;5032294;28;20361;-67
2022/04/19 05:11:46;;;;;;;1999.90;999.90;;;;;;;;;;5032128;28;20225;-67
2022/04/19 05:14:32;;;;;;;1999.90;999.90;;;;;;;;;;5032417;28;20210;-68
2022/04/19 05:17:17;;;;;;;1999.90;999.90;;;;;;;;;;5030860;28;20384;-68
2022/04/19 05:20:02;;;;;;;1999.90;999.90;;;;;;;;;;5031846;28;20301;-68
2022/04/19 05:22:47;;;;;;;1999.90;999.90;;;;;;;;;;5012822;28;20213;-68
2022/04/19 05:25:31;;;;;;;1999.90;999.90;;;;;;;;;;5012458;28;20207;-67
2022/04/19 05:28:16;;;;;;;1999.90;999.90;;;;;;;;;;5012253;28;20210;-68
2022/04/19 05:31:03;;;;;;;1999.90;999.90;;;;;;;;;;5012075;28;20226;-68
2022/04/19 05:33:47;;;;;;;1999.90;999.90;;;;;;;;;;5012426;28;20278;-67
2022/04/19 05:36:32;;;;;;;1999.90;999.90;;;;;;;;;;5012605;28;20210;-68
2022/04/19 05:39:17;;;;;;;1999.90;999.90;;;;;;;;;;5011973;28;20210;-68
2022/04/19 05:42:02;;;;;;;1999.90;999.90;;;;;;;;;;5012137;28;20230;-68
2022/04/19 05:44:47;;;;;;;1999.90;999.90;;;;;;;;;;5029410;28;20209;-67
2022/04/19 05:47:33;;;;;;;1999.90;999.90;;;;;;;;;;5030744;28;20410;-68
2022/04/19 05:50:18;;;;;;;1999.90;999.90;;;;;;;;;;5012203;28;20436;-68
2022/04/19 05:53:03;;;;;;;1999.90;999.90;;;;;;;;;;5014401;28;20872;-68
2022/04/19 05:55:48;;;;;;;1999.90;999.90;;;;;;;;;;5031463;28;20206;-68
2022/04/19 05:58:33;;;;;;;1999.90;999.90;;;;;;;;;;5030968;28;20413;-68
2022/04/19 06:01:19;;;;;;;1999.90;999.90;;;;;;;;;;5031458;28;20731;-68
2022/04/19 06:07:08;;;;;;;1999.90;999.90;;;;;;;;;;5031420;28;20209;-68
2022/04/19 06:09:54;;;;;;;1999.90;999.90;;;;;;;;;;5031465;28;20209;-68
2022/04/19 06:12:39;;;;;;;1999.90;999.90;;;;;;;;;;5031441;28;20202;-68
2022/04/19 06:15:24;;;;;;;1999.90;999.90;;;;;;;;;;5031135;28;20213;-68
2022/04/19 06:18:09;;;;;;;1999.90;999.90;;;;;;;;;;5031119;28;20214;-68
2022/04/19 06:20:55;;;;;;;1999.90;999.90;;;;;;;;;;5031600;28;20218;-68
2022/04/19 06:23:40;;;;;;;1999.90;999.90;;;;;;;;;;5031610;28;20233;-68
2022/04/19 06:26:25;;;;;;;1999.90;999.90;;;;;;;;;;5031666;28;20206;-67
2022/04/19 06:29:10;;;;;;;1999.90;999.90;;;;;;;;;;5034111;28;20256;-69
2022/04/19 06:31:56;;;;;;;1999.90;999.90;;;;;;;;;;5034675;28;20357;-67
2022/04/19 06:34:41;;;;;;;1999.90;999.90;;;;;;;;;;5035359;28;20578;-68
2022/04/19 06:37:28;;;;;;;1999.90;999.90;;;;;;;;;;5034859;28;20213;-67
2022/04/19 06:40:13;;;;;;;1999.90;999.90;;;;;;;;;;5035036;28;20233;-68
2022/04/19 06:42:59;;;;;;;1999.90;999.90;;;;;;;;;;5034074;28;20395;-69
2022/04/19 06:45:44;;;;;;;1999.90;999.90;;;;;;;;;;5035099;28;20207;-68
2022/04/19 06:48:30;;;;;;;1999.90;999.90;;;;;;;;;;5034919;28;20217;-68
2022/04/19 06:51:15;;;;;;;1999.90;999.90;;;;;;;;;;5034810;28;20224;-66
2022/04/19 06:54:01;;;;;;;1999.90;999.90;;;;;;;;;;5034927;28;20692;-68
2022/04/19 06:56:46;;;;;;;1999.90;999.90;;;;;;;;;;5034853;28;20211;-66
2022/04/19 06:59:31;;;;;;;1999.90;999.90;;;;;;;;;;5034371;28;20200;-68
2022/04/19 07:02:16;;;;;;;1999.90;999.90;;;;;;;;;;5034825;28;20241;-67
2022/04/19 07:05:01;;;;;;;1999.90;999.90;;;;;;;;;;5034880;28;20726;-67
2022/04/19 07:07:46;;;;;;;1999.90;999.90;;;;;;;;;;5034533;28;20225;-67
2022/04/19 07:10:33;;;;;;;1999.90;999.90;;;;;;;;;;5031465;28;20712;-66
2022/04/19 07:13:19;;;;;;;1999.90;999.90;;;;;;;;;;5034348;28;20218;-67
2022/04/19 07:16:04;;;;;;;1999.90;999.90;;;;;;;;;;5034463;28;20212;-67
2022/04/19 07:18:49;;;;;;;1999.90;999.90;;;;;;;;;;5034198;28;20581;-66
2022/04/19 07:27:42;;;;;;;1999.90;999.90;;;;;;;;;;5020318;28;20232;-67
2022/04/19 07:30:28;;;;;;;1999.90;999.90;;;;;;;;;;5034272;28;20585;-67
2022/04/19 07:33:13;;;;;;;1999.90;999.90;;;;;;;;;;5033986;28;20284;-66
2022/04/19 07:35:58;;;;;;;1999.90;999.90;;;;;;;;;;5023754;28;20562;-68
2022/04/19 07:38:43;;;;;;;1999.90;999.90;;;;;;;;;;5013950;28;20216;-67
2022/04/19 07:41:28;;;;;;;1999.90;999.90;;;;;;;;;;5014120;28;20317;-67
2022/04/19 07:44:15;;;;;;;1999.90;999.90;;;;;;;;;;5020357;28;20337;-67
2022/04/19 07:47:01;;;;;;;1999.90;999.90;;;;;;;;;;5033247;28;20206;-70
2022/04/19 07:49:47;;;;;;;1999.90;999.90;;;;;;;;;;5015388;28;20305;-71
2022/04/19 07:52:32;;;;;;;1999.90;999.90;;;;;;;;;;5033800;28;20223;-69
2022/04/19 07:55:17;;;;;;;1999.90;999.90;;;;;;;;;;5033888;28;20225;-70
2022/04/19 07:58:02;;;;;;;1999.90;999.90;;;;;;;;;;5033572;28;20214;-70
2022/04/19 08:00:48;;;;;;;1999.90;999.90;;;;;;;;;;5033601;28;20328;-70
2022/04/19 08:03:34;;;;;;;1999.90;999.90;;;;;;;;;;5032997;28;20392;-70
2022/04/19 08:06:19;;;;;;;1999.90;999.90;;;;;;;;;;5032449;28;20254;-69
2022/04/19 08:09:05;;;;;;;1999.90;999.90;;;;;;;;;;5029084;28;20763;-69
2022/04/19 08:11:51;;;;;;;1999.90;999.90;;;;;;;;;;5029160;28;20236;-70
2022/04/19 08:14:36;;;;;;;1999.90;999.90;;;;;;;;;;5033556;28;20708;-70
2022/04/19 08:17:23;;;;;;;1999.90;999.90;;;;;;;;;;5032403;28;20731;-70
2022/04/19 08:20:08;;;;;;;1999.90;999.90;;;;;;;;;;5025615;28;20354;-70
2022/04/19 08:22:53;;;;;;;1999.90;999.90;;;;;;;;;;5019037;28;20208;-70
2022/04/19 08:25:38;;;;;;;1999.90;999.90;;;;;;;;;;5018946;28;20333;-70
2022/04/19 08:28:23;;;;;;;1999.90;999.90;;;;;;;;;;5024835;28;20239;-69
2022/04/19 08:31:07;;;;;;;1999.90;999.90;;;;;;;;;;5020482;28;20226;-69
2022/04/19 08:33:54;;;;;;;1999.90;999.90;;;;;;;;;;5018926;28;20415;-69
2022/04/19 08:36:39;;;;;;;1999.90;999.90;;;;;;;;;;5027616;28;20233;-69
2022/04/19 08:39:24;;;;;;;1999.90;999.90;;;;;;;;;;5019500;28;20309;-70
2022/04/19 08:42:09;;;;;;;1999.90;999.90;;;;;;;;;;5015023;28;20202;-69
2022/04/19 08:44:54;;;;;;;1999.90;999.90;;;;;;;;;;5017470;28;20512;-69
2022/04/19 08:47:39;;;;;;;1999.90;999.90;;;;;;;;;;5022799;28;20264;-69
2022/04/19 08:50:26;;;;;;;1999.90;999.90;;;;;;;;;;5022820;28;20230;-70
2022/04/19 08:59:27;;;;;;;1999.90;999.90;;;;;;;;;;5021956;28;20264;-70
2022/04/19 09:02:20;;;;;;;1999.90;999.90;;;;;;;;;;5022404;28;20320;-70
2022/04/19 09:05:13;;;;;;;1999.90;999.90;;;;;;;;;;5012114;28;20219;-69
2022/04/19 09:07:59;;;;;;;1999.90;999.90;;;;;;;;;;5020699;28;20257;-70
2022/04/19 09:10:44;;;;;;;1999.90;999.90;;;;;;;;;;5015736;28;20277;-69
2022/04/19 09:13:29;;;;;;;1999.90;999.90;;;;;;;;;;5016179;28;20411;-69
2022/04/19 09:16:14;;;;;;;1999.90;999.90;;;;;;;;;;5015298;28;20206;-70
2022/04/19 09:18:59;;;;;;;1999.90;999.90;;;;;;;;;;5021424;28;20342;-70
2022/04/19 09:21:44;;;;;;;1999.90;999.90;;;;;;;;;;5014437;28;20226;-69
2022/04/19 09:24:31;;;;;;;1999.90;999.90;;;;;;;;;;5014420;28;20272;-70
2022/04/19 09:27:32;;;;;;;1999.90;999.90;;;;;;;;;;5016534;28;20899;-70
2022/04/19 09:30:18;;;;;;;1999.90;999.90;;;;;;;;;;5014699;28;20229;-69
2022/04/19 09:33:04;;;;;;;1999.90;999.90;;;;;;;;;;5011277;28;20230;-69
2022/04/19 09:35:50;;;;;;;1999.90;999.90;;;;;;;;;;5019870;28;20218;-70
2022/04/19 09:38:36;;;;;;;1999.90;999.90;;;;;;;;;;5022384;28;20265;-70
2022/04/19 09:41:31;;;;;;;1999.90;999.90;;;;;;;;;;5015089;28;20338;-70
2022/04/19 09:44:16;;;;;;;1999.90;999.90;;;;;;;;;;5022735;28;20218;-70
2022/04/19 09:47:02;;;;;;;1999.90;999.90;;;;;;;;;;5027887;28;20212;-70
2022/04/19 09:49:48;;;;;;;1999.90;999.90;;;;;;;;;;5025548;28;20268;-70
2022/04/19 09:52:41;;;;;;;1999.90;999.90;;;;;;;;;;5017459;28;20215;-70
2022/04/19 09:55:29;;;;;;;1999.90;999.90;;;;;;;;;;5019361;28;20227;-69
2022/04/19 09:58:16;;;;;;;1999.90;999.90;;;;;;;;;;5019610;28;20245;-70
2022/04/19 10:01:01;;;;;;;1999.90;999.90;;;;;;;;;;5025280;28;20592;-69
2022/04/19 10:09:52;;;;;;;1999.90;999.90;;;;;;;;;;5013438;28;20407;-69
2022/04/19 10:12:38;;;;;;;1999.90;999.90;;;;;;;;;;5025734;28;20233;-70
2022/04/19 10:15:24;;;;;;;1999.90;999.90;;;;;;;;;;5032650;28;20222;-69
2022/04/19 10:18:10;;;;;;;1999.90;999.90;;;;;;;;;;5030312;28;20580;-70
2022/04/19 10:20:56;;;;;;;1999.90;999.90;;;;;;;;;;5022698;28;20312;-70
2022/04/19 10:23:42;;;;;;;1999.90;999.90;;;;;;;;;;5020467;28;20237;-71
2022/04/19 10:26:28;;;;;;;1999.90;999.90;;;;;;;;;;5027979;28;20265;-71
2022/04/19 10:29:20;;;;;;;1999.90;999.90;;;;;;;;;;5027279;28;20672;-70
2022/04/19 10:32:08;;;;;;;1999.90;999.90;;;;;;;;;;5020832;28;20214;-70
2022/04/19 10:34:59;;;;;;;1999.90;999.90;;;;;;;;;;5018182;28;20214;-69
2022/04/19 10:37:45;;;;;;;1999.90;999.90;;;;;;;;;;5022006;28;20565;-71
2022/04/19 10:40:49;;;;;;;1999.90;999.90;;;;;;;;;;5022030;28;20242;-71
2022/04/19 10:43:34;;;;;;;1999.90;999.90;;;;;;;;;;5027662;28;20284;-70
2022/04/19 10:46:19;;;;;;;1999.90;999.90;;;;;;;;;;5016513;28;20568;-72
2022/04/19 10:49:24;;;;;;;1999.90;999.90;;;;;;;;;;5026938;28;20384;-67
2022/04/19 10:52:24;;;;;;;1999.90;999.90;;;;;;;;;;5028821;28;20213;-70
2022/04/19 10:55:10;;;;;;;1999.90;999.90;;;;;;;;;;5025806;28;20266;-68
2022/04/19 10:58:12;;;;;;;1999.90;999.90;;;;;;;;;;5017538;28;20219;-70
2022/04/19 11:00:58;;;;;;;1999.90;999.90;;;;;;;;;;5027570;28;20349;-71
2022/04/19 11:03:49;;;;;;;1999.90;999.90;;;;;;;;;;5022739;28;20214;-70
2022/04/19 11:06:40;;;;;;;1999.90;999.90;;;;;;;;;;5017915;28;20743;-70
2022/04/19 11:09:28;;;;;;;1999.90;999.90;;;;;;;;;;5027109;28;20715;-70
2022/04/19 11:12:15;;;;;;;1999.90;999.90;;;;;;;;;;5023591;28;20300;-68
2022/04/19 11:15:13;;;;;;;1999.90;999.90;;;;;;;;;;5023056;28;20205;-71
2022/04/19 11:18:22;;;;;;;1999.90;999.90;;;;;;;;;;5021559;28;20607;-70
2022/04/19 11:21:07;;;;;;;1999.90;999.90;;;;;;;;;;5020641;28;20225;-70
2022/04/19 11:23:53;;;;;;;1999.90;999.90;;;;;;;;;;5021708;28;20202;-70
2022/04/19 11:26:41;;;;;;;1999.90;999.90;;;;;;;;;;5016886;28;20432;-70
2022/04/19 11:29:27;;;;;;;1999.90;999.90;;;;;;;;;;5014935;28;20284;-69
2022/04/19 11:32:12;;;;;;;1999.90;999.90;;;;;;;;;;5019657;28;20334;-70
2022/04/19 11:34:57;;;;;;;1999.90;999.90;;;;;;;;;;5020562;28;20207;-70
2022/04/19 11:37:43;;;;;;;1999.90;999.90;;;;;;;;;;5019847;28;20760;-71
2022/04/19 11:46:48;;;;;;;1999.90;999.90;;;;;;;;;;5021263;28;20198;-71
2022/04/19 11:49:38;;;;;;;1999.90;999.90;;;;;;;;;;5023345;28;20260;-70
2022/04/19 11:52:26;;;;;;;1999.90;999.90;;;;;;;;;;5022338;28;20816;-69
2022/04/19 11:55:11;;;;;;;1999.90;999.90;;;;;;;;;;5019728;28;20265;-68
2022/04/19 11:58:05;;;;;;;1999.90;999.90;;;;;;;;;;5015912;28;20285;-67
2022/04/19 12:00:58;;;;;;;1999.90;999.90;;;;;;;;;;5022767;28;20237;-69
2022/04/19 12:03:43;;;;;;;1999.90;999.90;;;;;;;;;;5020726;28;20207;-70
2022/04/19 12:06:28;;;;;;;1999.90;999.90;;;;;;;;;;5019624;28;20403;-69
2022/04/19 12:09:15;;;;;;;1999.90;999.90;;;;;;;;;;5026649;28;20710;-70
2022/04/19 12:12:00;;;;;;;1999.90;999.90;;;;;;;;;;5022588;28;20818;-70
2022/04/19 12:14:52;;;;;;;1999.90;999.90;;;;;;;;;;5029514;28;20330;-70
2022/04/19 12:17:43;;;;;;;1999.90;999.90;;;;;;;;;;5019410;28;20212;-69
2022/04/19 12:20:28;;;;;;;1999.90;999.90;;;;;;;;;;5020559;28;20318;-70
2022/04/19 12:23:17;;;;;;;1999.90;999.90;;;;;;;;;;5012712;28;20294;-70
2022/04/19 12:26:04;;;;;;;1999.90;999.90;;;;;;;;;;5011465;28;20326;-70
2022/04/19 12:28:49;;;;;;;1999.90;999.90;;;;;;;;;;5027836;28;20260;-68
2022/04/19 12:31:38;;;;;;;1999.90;999.90;;;;;;;;;;5018804;28;20317;-69
2022/04/19 12:34:31;;;;;;;1999.90;999.90;;;;;;;;;;5015364;28;20288;-70
2022/04/19 12:37:17;;;;;;;1999.90;999.90;;;;;;;;;;5027319;28;20699;-70
2022/04/19 12:40:03;;;;;;;1999.90;999.90;;;;;;;;;;5017200;28;20322;-70
2022/04/19 12:42:50;;;;;;;1999.90;999.90;;;;;;;;;;5024103;28;20573;-70
2022/04/19 12:45:36;;;;;;;1999.90;999.90;;;;;;;;;;5010944;28;20404;-69
2022/04/19 12:48:23;;;;;;;1999.90;999.90;;;;;;;;;;5022181;28;20937;-72
2022/04/19 12:51:08;;;;;;;1999.90;999.90;;;;;;;;;;5024618;28;20395;-68
2022/04/19 12:54:03;;;;;;;1999.90;999.90;;;;;;;;;;5024802;28;20218;-69
2022/04/19 12:56:54;;;;;;;1999.90;999.90;;;;;;;;;;5025263;28;20313;-70
2022/04/19 12:59:40;;;;;;;1999.90;999.90;;;;;;;;;;5026488;28;20207;-70
2022/04/19 13:02:25;;;;;;;1999.90;999.90;;;;;;;;;;5026131;28;20206;-70
2022/04/19 13:05:11;;;;;;;1999.90;999.90;;;;;;;;;;5017321;28;20341;-70
2022/04/19 13:14:04;;;;;;;1999.90;999.90;;;;;;;;;;5014555;28;20223;-71
2022/04/19 13:16:48;;;;;;;1999.90;999.90;;;;;;;;;;5011449;28;20207;-71
2022/04/19 13:19:34;;;;;;;1999.90;999.90;;;;;;;;;;5018672;28;20293;-71
2022/04/19 13:22:20;;;;;;;1999.90;999.90;;;;;;;;;;5014387;28;20205;-71
2022/04/19 13:25:05;;;;;;;1999.90;999.90;;;;;;;;;;5017915;28;20477;-70
2022/04/19 13:27:51;;;;;;;1999.90;999.90;;;;;;;;;;5011051;28;20292;-71
2022/04/19 13:30:38;;;;;;;1999.90;999.90;;;;;;;;;;5018391;28;20304;-71
2022/04/19 13:33:23;;;;;;;1999.90;999.90;;;;;;;;;;5017198;28;20821;-71
2022/04/19 13:36:08;;;;;;;1999.90;999.90;;;;;;;;;;5011170;28;20331;-72
2022/04/19 13:38:54;;;;;;;1999.90;999.90;;;;;;;;;;5025660;28;20213;-71
2022/04/19 13:41:41;;;;;;;1999.90;999.90;;;;;;;;;;5019348;28;20243;-71
2022/04/19 13:44:26;;;;;;;1999.90;999.90;;;;;;;;;;5027133;28;20328;-70
2022/04/19 13:47:11;;;;;;;1999.90;999.90;;;;;;;;;;5023360;28;20293;-71
2022/04/19 13:49:56;;;;;;;1999.90;999.90;;;;;;;;;;5019716;28;20482;-70
2022/04/19 13:52:41;;;;;;;1999.90;999.90;;;;;;;;;;5021252;28;20321;-70
2022/04/19 13:55:28;;;;;;;1999.90;999.90;;;;;;;;;;5025495;28;20345;-70
2022/04/19 13:58:13;;;;;;;1999.90;999.90;;;;;;;;;;5023388;28;20198;-70
2022/04/19 14:00:58;;;;;;;1999.90;999.90;;;;;;;;;;5020276;28;20296;-70
2022/04/19 14:03:43;;;;;;;1999.90;999.90;;;;;;;;;;5019176;28;20186;-71
2022/04/19 14:06:29;;;;;;;1999.90;999.90;;;;;;;;;;5024628;28;20213;-70
2022/04/19 14:09:14;;;;;;;1999.90;999.90;;;;;;;;;;5018934;28;20442;-70
2022/04/19 14:12:04;;;;;;;1999.90;999.90;;;;;;;;;;5010538;28;20317;-68
2022/04/19 14:14:49;;;;;;;1999.90;999.90;;;;;;;;;;5015256;28;20782;-69
2022/04/19 14:17:34;;;;;;;1999.90;999.90;;;;;;;;;;5019183;28;20202;-70
2022/04/19 14:20:19;;;;;;;1999.90;999.90;;;;;;;;;;5020244;28;20657;-69
2022/04/19 14:23:04;;;;;;;1999.90;999.90;;;;;;;;;;5014542;28;20223;-70
2022/04/19 14:25:49;;;;;;;1999.90;999.90;;;;;;;;;;5011301;28;20225;-69
2022/04/19 14:34:42;;;;;;;1999.90;999.90;;;;;;;;;;5015701;28;20292;-70
2022/04/19 14:37:27;;;;;;;1999.90;999.90;;;;;;;;;;5018837;28;20696;-70
2022/04/19 14:40:12;;;;;;;1999.90;999.90;;;;;;;;;;5014540;28;20544;-69
2022/04/19 14:42:58;;;;;;;1999.90;999.90;;;;;;;;;;5010673;28;20207;-71
2022/04/19 14:45:44;;;;;;;1999.90;999.90;;;;;;;;;;5018028;28;20292;-71
2022/04/19 14:48:29;;;;;;;1999.90;999.90;;;;;;;;;;5015478;28;20579;-71
2022/04/19 14:54:17;;;;;;;1999.90;999.90;;;;;;;;;;5013824;28;20246;-70
2022/04/19 14:57:02;;;;;;;1999.90;999.90;;;;;;;;;;5014396;28;20213;-69
2022/04/19 14:59:47;;;;;;;1999.90;999.90;;;;;;;;;;5017124;28;20213;-71
2022/04/19 15:02:34;;;;;;;1999.90;999.90;;;;;;;;;;5023743;28;20207;-70
2022/04/19 15:05:20;;;;;;;1999.90;999.90;;;;;;;;;;5025021;28;20699;-71
2022/04/19 15:08:05;;;;;;;1999.90;999.90;;;;;;;;;;5019650;28;20275;-70
2022/04/19 15:10:50;;;;;;;1999.90;999.90;;;;;;;;;;5017014;28;20227;-71
2022/04/19 15:13:36;;;;;;;1999.90;999.90;;;;;;;;;;5024146;28;20290;-70
2022/04/19 15:16:21;;;;;;;1999.90;999.90;;;;;;;;;;5018087;28;20210;-70
2022/04/19 15:19:07;;;;;;;1999.90;999.90;;;;;;;;;;5023213;28;20542;-70
2022/04/19 15:21:52;;;;;;;1999.90;999.90;;;;;;;;;;5020593;28;20604;-70
2022/04/19 15:24:37;;;;;;;1999.90;999.90;;;;;;;;;;5026296;28;20203;-70
2022/04/19 15:27:21;;;;;;;1999.90;999.90;;;;;;;;;;5021116;28;20210;-71
2022/04/19 15:30:07;;;;;;;1999.90;999.90;;;;;;;;;;5013341;28;20238;-70
2022/04/19 15:32:52;;;;;;;1999.90;999.90;;;;;;;;;;5023649;28;20249;-71
2022/04/19 15:35:38;;;;;;;1999.90;999.90;;;;;;;;;;5018416;28;20209;-70
2022/04/19 15:38:24;;;;;;;1999.90;999.90;;;;;;;;;;5015876;28;20222;-69
2022/04/19 15:41:10;;;;;;;1999.90;999.90;;;;;;;;;;5013004;28;20230;-70
2022/04/19 15:43:55;;;;;;;1999.90;999.90;;;;;;;;;;5023730;28;20238;-71
2022/04/19 15:46:40;;;;;;;1999.90;999.90;;;;;;;;;;5028995;28;20480;-70
2022/04/19 15:49:25;;;;;;;1999.90;999.90;;;;;;;;;;5026609;28;20221;-71
2022/04/19 15:52:11;;;;;;;1999.90;999.90;;;;;;;;;;5013566;28;20206;-70
2022/04/19 15:54:57;;;;;;;1999.90;999.90;;;;;;;;;;5019149;28;20269;-71
2022/04/19 15:57:41;;;;;;;1999.90;999.90;;;;;;;;;;5022132;28;20398;-70
2022/04/19 16:00:27;;;;;;;1999.90;999.90;;;;;;;;;;5022345;28;20264;-71
2022/04/19 16:03:11;;;;;;;1999.90;999.90;;;;;;;;;;5022663;28;20199;-71
2022/04/19 16:05:56;;;;;;;1999.90;999.90;;;;;;;;;;5015900;28;20697;-70
2022/04/19 16:08:43;;;;;;;1999.90;999.90;;;;;;;;;;5025348;28;20216;-70
2022/04/19 16:11:28;;;;;;;1999.90;999.90;;;;;;;;;;5021258;28;20230;-70
2022/04/19 16:14:13;;;;;;;1999.90;999.90;;;;;;;;;;5024463;28;20235;-69
2022/04/19 16:23:22;;;;;;;1999.90;999.90;;;;;;;;;;5018716;28;21249;-71
2022/04/19 16:26:08;;;;;;;1999.90;999.90;;;;;;;;;;5012498;28;20206;-70